createdAt,value
2022-08-22T00:02:05.981Z,100435.34
2022-08-22T00:02:45.721Z,100404.66
2022-08-22T00:02:52.899Z,100391.19
2022-08-22T00:04:39.838Z,100442.56
2022-08-22T00:07:11.338Z,100436.47
2022-08-22T00:09:41.685Z,100432.22
2022-08-22T00:12:15.147Z,100440.88
2022-08-22T00:14:46.262Z,100444.69
2022-08-22T00:17:30.181Z,100439.31
2022-08-22T00:20:01.600Z,100444.03
2022-08-22T00:22:34.966Z,100439.59
2022-08-22T00:25:24.721Z,100416.94
2022-08-22T00:27:56.034Z,100371.88
2022-08-22T00:30:23.810Z,100436.53
2022-08-22T00:32:54.619Z,100442.06
2022-08-22T00:35:24.354Z,100430.69
2022-08-22T00:38:02.737Z,100442.34
2022-08-22T00:40:36.337Z,100443.31
2022-08-22T00:43:35.292Z,100437.25
2022-08-22T00:46:19.632Z,100389.44
2022-08-22T00:49:04.979Z,100435.66
2022-08-22T00:51:51.600Z,100437.81
2022-08-22T00:54:24.518Z,100435.56
2022-08-22T00:57:11.870Z,100445.03
2022-08-22T00:59:51.527Z,100443.63
2022-08-22T01:02:28.531Z,100448.88
2022-08-22T01:05:17.338Z,100444.75
2022-08-22T01:07:59.323Z,100443.19
2022-08-22T01:10:38.104Z,100438.22
2022-08-22T01:13:15.423Z,100396.56
2022-08-22T01:15:43.231Z,100433.84
2022-08-22T01:18:30.979Z,100433.69
2022-08-22T01:26:54.191Z,100436.25
2022-08-22T01:29:48.701Z,100427.16
2022-08-22T01:32:53.390Z,100407.59
2022-08-22T01:36:12.621Z,100443.06
2022-08-22T01:38:51.830Z,100447.88
2022-08-22T01:41:23.907Z,100439.50
2022-08-22T01:44:05.482Z,100365.09
2022-08-22T01:46:36.693Z,100436.81
2022-08-22T01:49:09.479Z,100444.19
2022-08-22T01:51:40.474Z,100442.47
2022-08-22T01:54:10.943Z,100394.13
2022-08-22T01:56:41.960Z,100439.50
2022-08-22T01:59:11.311Z,100395.56
2022-08-22T02:01:53.655Z,100402.50
2022-08-22T02:04:29.996Z,100438.06
2022-08-22T02:07:03.376Z,100412.44
2022-08-22T02:09:36.230Z,100441.75
2022-08-22T02:12:22.148Z,100448.00
2022-08-22T02:14:53.802Z,100441.19
2022-08-22T02:17:23.226Z,100434.41
2022-08-22T02:19:55.740Z,100437.22
2022-08-22T02:22:32.441Z,100437.22
2022-08-22T02:25:04.416Z,100439.19
2022-08-22T02:27:40.110Z,100436.50
2022-08-22T02:30:09.936Z,100416.34
2022-08-22T02:32:46.858Z,100433.13
2022-08-22T02:35:21.928Z,100385.88
2022-08-22T02:37:56.924Z,100407.84
2022-08-22T02:40:29.280Z,100374.09
2022-08-22T02:42:59.668Z,100427.28
2022-08-22T02:45:31.209Z,100433.69
2022-08-22T02:48:02.318Z,100430.41
2022-08-22T02:50:35.818Z,100442.03
2022-08-22T02:53:07.078Z,100406.00
2022-08-22T02:55:43.597Z,100437.75
2022-08-22T02:58:15.628Z,100429.78
2022-08-22T03:00:46.355Z,100412.66
2022-08-22T03:03:22.577Z,100430.06
2022-08-22T03:05:59.116Z,100429.38
2022-08-22T03:08:31.826Z,100375.66
2022-08-22T03:11:07.352Z,100382.00
2022-08-22T03:13:38.850Z,100386.16
2022-08-22T03:16:11.767Z,100435.19
2022-08-22T03:18:44.602Z,100405.66
2022-08-22T03:21:17.679Z,100413.03
2022-08-22T03:23:48.591Z,100428.34
2022-08-22T03:26:18.327Z,100371.38
2022-08-22T03:28:59.144Z,100427.38
2022-08-22T03:31:28.514Z,100423.97
2022-08-22T03:34:20.350Z,100419.44
2022-08-22T03:36:48.327Z,100397.03
2022-08-22T03:39:20.137Z,100417.19
2022-08-22T03:42:04.215Z,100362.56
2022-08-22T03:44:59.650Z,100413.75
2022-08-22T03:47:46.184Z,100376.63
2022-08-22T03:50:46.251Z,100423.94
2022-08-22T03:53:35.021Z,100429.72
2022-08-22T03:56:44.986Z,100424.34
2022-08-22T04:00:06.076Z,100427.19
2022-08-22T04:03:07.333Z,100430.88
2022-08-22T04:05:59.246Z,100434.69
2022-08-22T04:08:53.408Z,100428.59
2022-08-22T04:11:41.350Z,100434.09
2022-08-22T04:14:31.864Z,100443.31
2022-08-22T04:17:17.667Z,100437.94
2022-08-22T04:20:18.448Z,100442.31
2022-08-22T04:23:14.625Z,100440.75
2022-08-22T04:25:43.102Z,100413.63
2022-08-22T04:28:12.689Z,100448.09
2022-08-22T04:30:43.349Z,100447.25
2022-08-22T04:33:15.768Z,100444.00
2022-08-22T04:35:45.709Z,100434.75
2022-08-22T04:38:15.288Z,100447.66
2022-08-22T04:40:44.912Z,100457.56
2022-08-22T04:43:16.108Z,100457.72
2022-08-22T04:45:46.416Z,100429.03
2022-08-22T04:48:17.196Z,100464.19
2022-08-22T04:50:46.960Z,100428.25
2022-08-22T04:53:23.225Z,100433.53
2022-08-22T04:55:56.024Z,100457.97
2022-08-22T04:58:31.653Z,100457.97
2022-08-22T05:01:04.801Z,100403.72
2022-08-22T05:03:35.203Z,100465.31
2022-08-22T05:06:02.937Z,100458.25
2022-08-22T05:08:31.960Z,100460.94
2022-08-22T05:10:59.981Z,100464.16
2022-08-22T05:13:31.554Z,100471.56
2022-08-22T05:16:03.194Z,100426.13
2022-08-22T05:18:35.041Z,100475.34
2022-08-22T05:21:04.599Z,100478.91
2022-08-22T05:23:37.628Z,100461.91
2022-08-22T05:26:06.832Z,100469.00
2022-08-22T05:28:36.254Z,100435.63
2022-08-22T05:31:05.184Z,100440.16
2022-08-22T05:33:35.698Z,100463.88
2022-08-22T05:36:05.214Z,100459.63
2022-08-22T05:38:34.648Z,100469.28
2022-08-22T05:41:05.348Z,100449.78
2022-08-22T05:43:34.505Z,100466.84
2022-08-22T05:46:02.215Z,100461.00
2022-08-22T05:48:32.920Z,100463.97
2022-08-22T05:51:06.182Z,100399.66
2022-08-22T05:53:35.980Z,100435.97
2022-08-22T05:56:04.955Z,100419.13
2022-08-22T05:58:51.894Z,100466.34
2022-08-22T06:01:25.992Z,100471.75
2022-08-22T06:04:01.927Z,100466.19
2022-08-22T06:06:31.392Z,100469.13
2022-08-22T06:09:01.627Z,100400.28
2022-08-22T06:11:33.953Z,100423.19
2022-08-22T06:14:07.175Z,100460.44
2022-08-22T06:16:37.862Z,100440.47
2022-08-22T06:19:19.102Z,100437.31
2022-08-22T06:21:50.111Z,100446.63
2022-08-22T06:24:19.041Z,100468.53
2022-08-22T06:26:48.794Z,100463.53
2022-08-22T06:29:21.865Z,100470.34
2022-08-22T06:31:49.705Z,100468.53
2022-08-22T06:34:19.001Z,100466.47
2022-08-22T06:36:49.530Z,100467.66
2022-08-22T06:39:18.701Z,100478.53
2022-08-22T06:41:49.448Z,100434.25
2022-08-22T06:44:18.687Z,100474.78
2022-08-22T06:46:46.691Z,100485.00
2022-08-22T06:49:14.410Z,100484.19
2022-08-22T06:51:42.121Z,100484.91
2022-08-22T06:54:17.011Z,100474.09
2022-08-22T06:56:46.768Z,100482.59
2022-08-22T06:59:15.785Z,100481.13
2022-08-22T07:01:48.152Z,100486.13
2022-08-22T07:04:15.894Z,100484.78
2022-08-22T07:06:45.078Z,100483.81
2022-08-22T07:09:19.963Z,100437.19
2022-08-22T07:11:47.965Z,100435.94
2022-08-22T07:14:17.133Z,100481.25
2022-08-22T07:16:49.051Z,100486.97
2022-08-22T07:19:25.607Z,100483.91
2022-08-22T07:21:53.340Z,100469.91
2022-08-22T07:24:24.558Z,100426.34
2022-08-22T07:27:08.798Z,100489.09
2022-08-22T07:29:43.636Z,100487.03
2022-08-22T07:32:13.296Z,100437.53
2022-08-22T07:34:48.756Z,100495.06
2022-08-22T07:37:17.729Z,100493.81
2022-08-22T07:39:51.187Z,100428.28
2022-08-22T07:42:25.686Z,100477.84
2022-08-22T07:45:04.351Z,100497.66
2022-08-22T07:47:40.686Z,100477.09
2022-08-22T07:50:08.739Z,100433.88
2022-08-22T07:52:39.984Z,100481.53
2022-08-22T07:55:14.172Z,100492.34
2022-08-22T07:57:42.808Z,100496.16
2022-08-22T08:00:13.945Z,100488.53
2022-08-22T08:02:44.387Z,100485.06
2022-08-22T08:05:12.086Z,100484.56
2022-08-22T08:07:40.451Z,100491.94
2022-08-22T08:10:13.266Z,100482.97
2022-08-22T08:12:42.034Z,100458.75
2022-08-22T08:15:11.091Z,100447.03
2022-08-22T08:17:38.783Z,100486.63
2022-08-22T08:20:09.391Z,100488.94
2022-08-22T08:22:37.610Z,100479.34
2022-08-22T08:25:06.043Z,100413.84
2022-08-22T08:27:57.187Z,100492.47
2022-08-22T08:30:36.584Z,100477.50
2022-08-22T08:33:26.316Z,100433.34
2022-08-22T08:36:03.183Z,100471.56
2022-08-22T08:38:33.498Z,100473.28
2022-08-22T08:41:18.693Z,100473.72
2022-08-22T08:43:53.180Z,100416.44
2022-08-22T08:46:55.166Z,100441.56
2022-08-22T08:49:44.227Z,100466.50
2022-08-22T08:52:32.652Z,100395.59
2022-08-22T08:55:19.855Z,100400.19
2022-08-22T08:58:06.530Z,100455.16
2022-08-22T09:00:49.686Z,100424.16
2022-08-22T09:03:30.920Z,100433.81
2022-08-22T09:06:14.369Z,100441.91
2022-08-22T09:08:56.105Z,100443.50
2022-08-22T09:12:14.680Z,100455.66
2022-08-22T09:15:03.785Z,100449.72
2022-08-22T09:18:19.338Z,100449.72
2022-08-22T09:20:53.870Z,100440.94
2022-08-22T09:23:55.007Z,100436.38
2022-08-22T09:26:25.160Z,100440.66
2022-08-22T09:28:54.724Z,100440.38
2022-08-22T09:31:47.392Z,100432.69
2022-08-22T09:37:17.715Z,100433.09
2022-08-22T09:39:51.672Z,100364.38
2022-08-22T09:40:15.704Z,100432.69
2022-08-22T09:42:21.613Z,100423.03
2022-08-22T09:44:52.164Z,100421.59
2022-08-22T09:47:24.458Z,100414.09
2022-08-22T09:49:57.392Z,100407.75
2022-08-22T09:52:41.296Z,100398.09
2022-08-22T09:55:16.017Z,100413.19
2022-08-22T09:57:48.286Z,100407.38
2022-08-22T10:00:22.129Z,100383.44
2022-08-22T10:03:07.279Z,100403.78
2022-08-22T10:05:43.616Z,100354.66
2022-08-22T10:08:25.534Z,100400.19
2022-08-22T10:11:07.186Z,100392.50
2022-08-22T10:13:40.583Z,100398.94
2022-08-22T10:16:17.864Z,100400.56
2022-08-22T10:18:53.822Z,100388.16
2022-08-22T10:21:26.406Z,100347.97
2022-08-22T10:23:59.268Z,100391.47
2022-08-22T10:26:35.295Z,100381.41
2022-08-22T10:29:10.005Z,100383.94
2022-08-22T10:31:59.091Z,100334.91
2022-08-22T10:34:29.126Z,100377.38
2022-08-22T10:37:02.667Z,100347.69
2022-08-22T10:39:35.108Z,100371.00
2022-08-22T10:42:12.452Z,100349.38
2022-08-22T10:44:42.663Z,100373.25
2022-08-22T10:47:14.103Z,100362.47
2022-08-22T10:49:44.506Z,100365.44
2022-08-22T10:52:15.773Z,100364.88
2022-08-22T10:54:48.313Z,100309.19
2022-08-22T10:57:29.149Z,100366.38
2022-08-22T10:59:58.566Z,100363.25
2022-08-22T11:02:36.776Z,100354.50
2022-08-22T11:05:27.472Z,100353.88
2022-08-22T11:08:02.539Z,100318.25
2022-08-22T11:10:35.745Z,100313.41
2022-08-22T11:13:11.936Z,100336.97
2022-08-22T11:16:01.405Z,100365.50
2022-08-22T11:18:38.146Z,100313.69
2022-08-22T11:21:07.255Z,100300.59
2022-08-22T11:23:41.672Z,100355.34
2022-08-22T11:26:29.908Z,100353.41
2022-08-22T11:29:20.574Z,100354.19
2022-08-22T11:31:51.933Z,100342.47
2022-08-22T11:34:26.895Z,100346.09
2022-08-22T11:36:55.464Z,100312.44
2022-08-22T11:39:25.543Z,100348.47
2022-08-22T11:41:58.710Z,100348.16
2022-08-22T11:44:29.283Z,100299.78
2022-08-22T11:46:58.115Z,100345.38
2022-08-22T11:49:31.626Z,100351.81
2022-08-22T11:52:04.663Z,100347.41
2022-08-22T11:54:37.754Z,100344.00
2022-08-22T11:57:12.564Z,100347.72
2022-08-22T12:00:01.887Z,100315.44
2022-08-22T12:02:32.842Z,100313.75
2022-08-22T12:05:05.112Z,100298.50
2022-08-22T12:07:34.292Z,100349.88
2022-08-22T12:10:03.458Z,100341.78
2022-08-22T12:12:43.419Z,100338.94
2022-08-22T12:15:14.755Z,100316.84
2022-08-22T12:18:10.470Z,100302.09
2022-08-22T12:21:17.434Z,100316.56
2022-08-22T12:24:21.068Z,100331.53
2022-08-22T12:26:55.659Z,100336.06
2022-08-22T12:29:34.087Z,100324.09
2022-08-22T12:32:43.894Z,100324.81
2022-08-22T12:35:19.275Z,100298.19
2022-08-22T12:37:52.701Z,100281.06
2022-08-22T12:40:45.951Z,100313.84
2022-08-22T12:43:42.610Z,100307.50
2022-08-22T12:46:18.663Z,100303.94
2022-08-22T12:49:10.963Z,100304.56
2022-08-22T12:51:42.844Z,100290.59
2022-08-22T12:54:45.996Z,100284.41
2022-08-22T12:57:24.233Z,100245.13
2022-08-22T12:59:53.932Z,100299.41
2022-08-22T13:02:26.774Z,100295.19
2022-08-22T13:04:55.714Z,100295.72
2022-08-22T13:07:25.416Z,100282.34
2022-08-22T13:09:54.626Z,100276.06
2022-08-22T13:12:25.623Z,100274.59
2022-08-22T13:14:56.724Z,100240.72
2022-08-22T13:17:25.901Z,100278.34
2022-08-22T13:20:08.632Z,100242.78
2022-08-22T13:22:37.784Z,100284.97
2022-08-22T13:25:08.533Z,100278.00
2022-08-22T13:27:50.664Z,100275.31
2022-08-22T13:30:21.323Z,100204.88
2022-08-22T13:32:50.922Z,100274.44
2022-08-22T13:35:24.431Z,100271.63
2022-08-22T13:37:53.754Z,100269.78
2022-08-22T13:40:25.546Z,100250.97
2022-08-22T13:42:55.244Z,100262.03
2022-08-22T13:45:25.640Z,100262.06
2022-08-22T13:47:56.837Z,100263.72
2022-08-22T13:50:25.527Z,100263.72
2022-08-22T13:52:57.184Z,100240.69
2022-08-22T13:55:29.661Z,100266.06
2022-08-22T13:58:00.913Z,100260.81
2022-08-22T14:01:08.796Z,100257.59
2022-08-22T14:03:40.958Z,100261.66
2022-08-22T14:06:35.523Z,100257.09
2022-08-22T14:09:13.852Z,100257.91
2022-08-22T14:11:44.340Z,100254.22
2022-08-22T14:14:12.069Z,100255.91
2022-08-22T14:16:51.689Z,100257.28
2022-08-22T14:19:27.932Z,100252.22
2022-08-22T14:21:59.549Z,100216.59
2022-08-22T14:24:29.126Z,100253.19
2022-08-22T14:26:59.727Z,100251.84
2022-08-22T14:29:38.811Z,100105.16
2022-08-22T14:32:14.075Z,100228.44
2022-08-22T14:34:45.440Z,100236.25
2022-08-22T14:37:17.004Z,100238.09
2022-08-22T14:39:47.153Z,100201.84
2022-08-22T14:42:17.568Z,100244.53
2022-08-22T14:44:51.795Z,100241.66
2022-08-22T14:47:43.242Z,100203.41
2022-08-22T14:50:42.155Z,100237.06
2022-08-22T14:53:12.050Z,100203.41
2022-08-22T14:55:40.427Z,100218.47
2022-08-22T14:58:09.783Z,100191.53
2022-08-22T15:00:39.202Z,100230.47
2022-08-22T15:03:14.736Z,100181.75
2022-08-22T15:05:48.712Z,100225.44
2022-08-22T15:08:27.439Z,100189.19
2022-08-22T15:11:13.268Z,100219.00
2022-08-22T15:13:43.274Z,100187.84
2022-08-22T15:16:15.241Z,100209.88
2022-08-22T15:18:51.703Z,100209.88
2022-08-22T15:21:24.127Z,100163.34
2022-08-22T15:23:54.306Z,100138.63
2022-08-22T15:26:28.605Z,100203.63
2022-08-22T15:29:18.400Z,100207.16
2022-08-22T15:31:48.340Z,100201.09
2022-08-22T15:34:22.939Z,100208.56
2022-08-22T15:37:09.817Z,100163.84
2022-08-22T15:40:02.978Z,100170.63
2022-08-22T15:42:37.456Z,100196.34
2022-08-22T15:45:06.031Z,100206.00
2022-08-22T15:47:37.620Z,100143.41
2022-08-22T15:50:07.586Z,100201.41
2022-08-22T15:52:59.148Z,100195.72
2022-08-22T15:55:34.433Z,100185.06
2022-08-22T15:58:05.613Z,100132.56
2022-08-22T16:00:43.413Z,100165.38
2022-08-22T16:03:13.196Z,100145.09
2022-08-22T16:05:54.972Z,100185.91
2022-08-22T16:08:27.189Z,100187.75
2022-08-22T16:11:20.563Z,100185.19
2022-08-22T16:13:48.294Z,100181.13
2022-08-22T16:16:49.198Z,100179.78
2022-08-22T16:19:19.614Z,100177.41
2022-08-22T16:22:02.826Z,100177.75
2022-08-22T16:24:56.240Z,100125.63
2022-08-22T16:27:25.996Z,100181.31
2022-08-22T16:30:02.307Z,100137.47
2022-08-22T16:32:30.011Z,100179.63
2022-08-22T16:34:57.757Z,100182.00
2022-08-22T16:37:45.476Z,100147.13
2022-08-22T16:40:20.115Z,100158.28
2022-08-22T16:42:50.904Z,100180.81
2022-08-22T16:45:20.305Z,100135.97
2022-08-22T16:47:56.583Z,100164.72
2022-08-22T16:50:32.364Z,100183.69
2022-08-22T16:53:02.414Z,100181.13
2022-08-22T16:55:59.967Z,100181.13
2022-08-22T16:59:01.062Z,100178.94
2022-08-22T17:02:00.681Z,100180.28
2022-08-22T17:04:32.995Z,100132.38
2022-08-22T17:07:11.628Z,100175.38
2022-08-22T17:10:04.854Z,100182.78
2022-08-22T17:12:42.512Z,100181.09
2022-08-22T17:15:17.746Z,100184.81
2022-08-22T17:17:52.187Z,100182.75
2022-08-22T17:20:24.282Z,100186.31
2022-08-22T17:22:54.297Z,100161.97
2022-08-22T17:25:23.489Z,100179.41
2022-08-22T17:27:56.189Z,100181.75
2022-08-22T17:30:27.316Z,100189.84
2022-08-22T17:33:03.859Z,100182.22
2022-08-22T17:35:38.242Z,100184.78
2022-08-22T17:38:08.494Z,100196.59
2022-08-22T17:40:42.926Z,100196.78
2022-08-22T17:43:22.855Z,100167.44
2022-08-22T17:45:54.175Z,100196.56
2022-08-22T17:48:23.268Z,100194.50
2022-08-22T17:50:54.867Z,100190.78
2022-08-22T17:53:32.216Z,100155.19
2022-08-22T17:56:04.642Z,100213.28
2022-08-22T17:58:43.393Z,100210.19
2022-08-22T18:01:14.646Z,100188.28
2022-08-22T18:03:47.300Z,100217.56
2022-08-22T18:06:19.160Z,100230.81
2022-08-22T18:11:40.320Z,100246.50
2022-08-22T18:14:11.683Z,100249.38
2022-08-22T18:16:49.772Z,100256.47
2022-08-22T18:19:31.907Z,100243.09
2022-08-22T18:22:04.433Z,100247.81
2022-08-22T18:24:33.636Z,100252.53
2022-08-22T18:27:03.213Z,100240.69
2022-08-22T18:29:41.509Z,100251.66
2022-08-22T18:32:12.499Z,100253.69
2022-08-22T18:34:43.543Z,100226.06
2022-08-22T18:37:17.538Z,100256.72
2022-08-22T18:39:48.087Z,100261.28
2022-08-22T18:42:22.057Z,100256.88
2022-08-22T18:44:51.151Z,100262.44
2022-08-22T18:47:21.580Z,100216.00
2022-08-22T18:49:54.137Z,100258.16
2022-08-22T18:52:33.063Z,100264.44
2022-08-22T18:55:42.381Z,100264.94
2022-08-22T18:58:28.847Z,100272.03
2022-08-22T19:01:06.728Z,100255.09
2022-08-22T19:03:42.614Z,100257.94
2022-08-22T19:06:22.389Z,100232.19
2022-08-22T19:09:14.659Z,100217.28
2022-08-22T19:11:47.300Z,100263.56
2022-08-22T19:14:27.719Z,100269.94
2022-08-22T19:17:06.224Z,100278.06
2022-08-22T19:19:56.471Z,100283.47
2022-08-22T19:22:26.447Z,100274.69
2022-08-22T19:25:05.823Z,100281.22
2022-08-22T19:27:39.505Z,100236.66
2022-08-22T19:30:08.450Z,100267.84
2022-08-22T19:33:07.669Z,100277.88
2022-08-22T19:35:44.169Z,100291.38
2022-08-22T19:38:11.998Z,100257.63
2022-08-22T19:40:54.313Z,100286.94
2022-08-22T19:43:29.795Z,100288.97
2022-08-22T19:45:57.780Z,100293.53
2022-08-22T19:48:28.524Z,100288.13
2022-08-22T19:51:12.703Z,100290.81
2022-08-22T19:53:45.987Z,100289.31
2022-08-22T19:56:23.969Z,100290.44
2022-08-22T19:58:57.418Z,100292.16
2022-08-22T20:01:35.509Z,100295.69
2022-08-22T20:04:06.057Z,100289.63
2022-08-22T20:06:44.278Z,100284.31
2022-08-22T20:09:24.710Z,100256.59
2022-08-22T20:11:53.834Z,100298.19
2022-08-22T20:14:30.023Z,100300.03
2022-08-22T20:17:01.219Z,100298.19
2022-08-22T20:20:16.537Z,100276.75
2022-08-22T20:22:35.515Z,100263.50
2022-08-22T20:25:08.112Z,100301.13
2022-08-22T20:27:46.754Z,100318.22
2022-08-22T20:30:15.771Z,100283.91
2022-08-22T20:32:45.582Z,100286.59
2022-08-22T20:35:19.031Z,100324.81
2022-08-22T20:38:06.382Z,100323.94
2022-08-22T20:40:54.868Z,100323.28
2022-08-22T20:43:25.198Z,100336.06
2022-08-22T20:46:00.898Z,100327.13
2022-08-22T20:48:33.456Z,100308.03
2022-08-22T20:51:05.089Z,100322.66
2022-08-22T20:53:32.806Z,100346.00
2022-08-22T20:56:00.516Z,100308.66
2022-08-22T20:58:29.629Z,100297.31
2022-08-22T21:01:00.150Z,100298.94
2022-08-22T21:03:33.968Z,100347.03
2022-08-22T21:06:12.024Z,100353.28
2022-08-22T21:08:39.879Z,100324.00
2022-08-22T21:11:25.423Z,100356.16
2022-08-22T21:13:53.335Z,100346.69
2022-08-22T21:16:22.248Z,100322.06
2022-08-22T21:18:50.769Z,100363.53
2022-08-22T21:21:21.367Z,100364.56
2022-08-22T21:23:50.165Z,100364.56
2022-08-22T21:26:22.264Z,100324.78
2022-08-22T21:28:57.258Z,100332.97
2022-08-22T21:31:25.972Z,100321.88
2022-08-22T21:33:54.640Z,100306.81
2022-08-22T21:36:25.384Z,100337.03
2022-08-22T21:38:54.595Z,100340.75
2022-08-22T21:41:29.923Z,100347.81
2022-08-22T21:43:57.667Z,100340.72
2022-08-22T21:46:27.359Z,100339.00
2022-08-22T21:48:59.772Z,100342.56
2022-08-22T21:51:31.851Z,100277.69
2022-08-22T21:54:22.230Z,100340.88
2022-08-22T21:56:51.104Z,100349.09
2022-08-22T21:59:26.828Z,100345.53
2022-08-22T22:02:36.335Z,100344.69
2022-08-22T22:05:07.488Z,100344.16
2022-08-22T22:07:37.948Z,100344.16
2022-08-22T22:10:07.465Z,100341.31
2022-08-22T22:12:35.202Z,100340.44
2022-08-22T22:15:02.951Z,100336.88
2022-08-22T22:17:30.646Z,100343.13
2022-08-22T22:19:58.405Z,100342.44
2022-08-22T22:22:26.116Z,100350.53
2022-08-22T22:24:55.197Z,100347.84
2022-08-22T22:27:22.907Z,100346.16
2022-08-22T22:29:50.641Z,100344.47
2022-08-22T22:32:18.334Z,100345.44
2022-08-22T22:34:46.046Z,100350.00
2022-08-22T22:37:14.743Z,100353.53
2022-08-22T22:39:42.737Z,100344.63
2022-08-22T22:42:11.879Z,100347.31
2022-08-22T22:44:39.570Z,100343.06
2022-08-22T22:47:11.652Z,100351.16
2022-08-22T22:49:39.418Z,100354.88
2022-08-22T22:52:07.312Z,100346.75
2022-08-22T22:54:39.365Z,100354.00
2022-08-22T22:57:12.158Z,100362.25
2022-08-22T22:59:41.917Z,100356.03
2022-08-22T23:02:11.589Z,100299.03
2022-08-22T23:04:41.867Z,100356.19
2022-08-22T23:07:09.852Z,100314.75
2022-08-22T23:09:38.165Z,100359.84
2022-08-22T23:12:06.934Z,100343.44
2022-08-22T23:14:35.014Z,100355.78
2022-08-22T23:17:04.248Z,100295.69
2022-08-22T23:19:31.995Z,100360.88
2022-08-22T23:22:01.029Z,100365.41
2022-08-22T23:24:29.518Z,100316.53
2022-08-22T23:26:57.350Z,100362.88
2022-08-22T23:29:25.179Z,100305.03
2022-08-22T23:31:54.161Z,100300.78
2022-08-22T23:34:31.541Z,100323.28
2022-08-22T23:37:00.592Z,100367.59
2022-08-22T23:39:29.208Z,100301.09
2022-08-22T23:41:57.029Z,100364.03
2022-08-22T23:44:26.244Z,100331.22
2022-08-22T23:46:53.964Z,100359.66
2022-08-22T23:49:23.059Z,100359.09
2022-08-22T23:51:50.925Z,100367.88
2022-08-22T23:54:18.854Z,100371.41
2022-08-22T23:56:47.623Z,100370.59
2022-08-22T23:59:17.008Z,100320.69
